sensor_id;sensor_type;location;lat;lon;timestamp;temperature;humidity
18948;DHT22;9607;51.600;7.558;2023-11-19T00:00:40;10.80;99.90
18948;DHT22;9607;51.600;7.558;2023-11-19T00:03:08;10.90;99.90
18948;DHT22;9607;51.600;7.558;2023-11-19T00:05:36;10.90;99.90
18948;DHT22;9607;51.600;7.558;2023-11-19T00:08:03;10.80;99.90
18948;DHT22;9607;51.600;7.558;2023-11-19T00:10:31;10.90;99.90
18948;DHT22;9607;51.600;7.558;2023-11-19T00:12:58;10.80;99.90
18948;DHT22;9607;51.600;7.558;2023-11-19T00:15:25;10.90;99.90
18948;DHT22;9607;51.600;7.558;2023-11-19T00:17:51;10.90;99.90
18948;DHT22;9607;51.600;7.558;2023-11-19T00:20:20;10.90;99.90
18948;DHT22;9607;51.600;7.558;2023-11-19T00:22:48;10.90;99.90
18948;DHT22;9607;51.600;7.558;2023-11-19T00:25:16;11.00;99.90
18948;DHT22;9607;51.600;7.558;2023-11-19T00:27:44;11.00;99.90
18948;DHT22;9607;51.600;7.558;2023-11-19T00:30:12;11.00;99.90
18948;DHT22;9607;51.600;7.558;2023-11-19T00:32:39;11.10;99.90
18948;DHT22;9607;51.600;7.558;2023-11-19T00:35:08;11.10;99.90
18948;DHT22;9607;51.600;7.558;2023-11-19T00:37:38;11.10;99.90
18948;DHT22;9607;51.600;7.558;2023-11-19T00:40:06;11.10;99.90
18948;DHT22;9607;51.600;7.558;2023-11-19T00:42:33;11.20;99.90
18948;DHT22;9607;51.600;7.558;2023-11-19T00:47:35;11.20;99.90
18948;DHT22;9607;51.600;7.558;2023-11-19T00:50:04;11.30;99.90
18948;DHT22;9607;51.600;7.558;2023-11-19T00:52:33;11.30;99.90
18948;DHT22;9607;51.600;7.558;2023-11-19T00:55:03;11.40;99.90
18948;DHT22;9607;51.600;7.558;2023-11-19T00:57:30;11.40;99.90
18948;DHT22;9607;51.600;7.558;2023-11-19T00:59:58;11.40;99.90
18948;DHT22;9607;51.600;7.558;2023-11-19T01:02:25;11.50;99.90
18948;DHT22;9607;51.600;7.558;2023-11-19T01:04:53;11.50;99.90
18948;DHT22;9607;51.600;7.558;2023-11-19T01:07:21;11.50;99.90
18948;DHT22;9607;51.600;7.558;2023-11-19T01:09:49;11.60;99.90
18948;DHT22;9607;51.600;7.558;2023-11-19T01:12:18;11.60;99.90
18948;DHT22;9607;51.600;7.558;2023-11-19T01:14:45;11.60;99.90
18948;DHT22;9607;51.600;7.558;2023-11-19T01:17:12;11.70;99.90
18948;DHT22;9607;51.600;7.558;2023-11-19T01:19:49;11.70;99.90
18948;DHT22;9607;51.600;7.558;2023-11-19T01:22:16;11.80;99.90
18948;DHT22;9607;51.600;7.558;2023-11-19T01:24:44;11.90;99.90
18948;DHT22;9607;51.600;7.558;2023-11-19T01:27:18;11.90;99.90
18948;DHT22;9607;51.600;7.558;2023-11-19T01:29:46;12.00;99.90
18948;DHT22;9607;51.600;7.558;2023-11-19T01:32:23;11.90;99.90
18948;DHT22;9607;51.600;7.558;2023-11-19T01:35:01;12.00;99.90
18948;DHT22;9607;51.600;7.558;2023-11-19T01:37:30;12.00;99.90
18948;DHT22;9607;51.600;7.558;2023-11-19T01:40:10;12.10;99.90
18948;DHT22;9607;51.600;7.558;2023-11-19T01:42:40;12.10;99.90
18948;DHT22;9607;51.600;7.558;2023-11-19T01:45:23;12.10;99.90
18948;DHT22;9607;51.600;7.558;2023-11-19T01:47:56;12.20;99.90
18948;DHT22;9607;51.600;7.558;2023-11-19T01:50:24;12.20;99.90
18948;DHT22;9607;51.600;7.558;2023-11-19T01:52:52;12.20;99.90
18948;DHT22;9607;51.600;7.558;2023-11-19T01:55:20;12.10;99.90
18948;DHT22;9607;51.600;7.558;2023-11-19T01:57:49;12.20;99.90
18948;DHT22;9607;51.600;7.558;2023-11-19T02:00:18;12.20;99.90
18948;DHT22;9607;51.600;7.558;2023-11-19T02:02:46;12.20;99.90
18948;DHT22;9607;51.600;7.558;2023-11-19T02:05:18;12.20;99.90
18948;DHT22;9607;51.600;7.558;2023-11-19T02:10:20;12.30;99.90
18948;DHT22;9607;51.600;7.558;2023-11-19T02:12:52;12.30;99.90
18948;DHT22;9607;51.600;7.558;2023-11-19T02:15:20;12.30;99.90
18948;DHT22;9607;51.600;7.558;2023-11-19T02:17:50;12.20;99.90
18948;DHT22;9607;51.600;7.558;2023-11-19T02:20:17;12.20;99.90
18948;DHT22;9607;51.600;7.558;2023-11-19T02:22:46;12.20;99.90
18948;DHT22;9607;51.600;7.558;2023-11-19T02:25:19;12.20;99.90
18948;DHT22;9607;51.600;7.558;2023-11-19T02:27:53;12.20;99.90
18948;DHT22;9607;51.600;7.558;2023-11-19T02:30:22;12.30;99.90
18948;DHT22;9607;51.600;7.558;2023-11-19T02:32:52;12.30;99.90
18948;DHT22;9607;51.600;7.558;2023-11-19T02:35:19;12.30;99.90
18948;DHT22;9607;51.600;7.558;2023-11-19T02:37:50;12.30;99.90
18948;DHT22;9607;51.600;7.558;2023-11-19T02:40:16;12.30;99.90
18948;DHT22;9607;51.600;7.558;2023-11-19T02:42:44;12.30;99.90
18948;DHT22;9607;51.600;7.558;2023-11-19T02:45:12;12.30;99.90
18948;DHT22;9607;51.600;7.558;2023-11-19T02:47:40;12.30;99.90
18948;DHT22;9607;51.600;7.558;2023-11-19T02:50:08;12.30;99.90
18948;DHT22;9607;51.600;7.558;2023-11-19T02:52:39;12.30;99.90
18948;DHT22;9607;51.600;7.558;2023-11-19T02:55:07;12.30;99.90
18948;DHT22;9607;51.600;7.558;2023-11-19T02:57:37;12.30;99.90
18948;DHT22;9607;51.600;7.558;2023-11-19T03:00:07;12.30;99.90
18948;DHT22;9607;51.600;7.558;2023-11-19T03:02:40;12.30;99.90
18948;DHT22;9607;51.600;7.558;2023-11-19T03:05:11;12.40;99.90
18948;DHT22;9607;51.600;7.558;2023-11-19T03:07:40;12.40;99.90
18948;DHT22;9607;51.600;7.558;2023-11-19T03:10:08;12.50;99.90
18948;DHT22;9607;51.600;7.558;2023-11-19T03:12:38;12.40;99.90
18948;DHT22;9607;51.600;7.558;2023-11-19T03:15:06;12.40;99.90
18948;DHT22;9607;51.600;7.558;2023-11-19T03:17:35;12.40;99.90
18948;DHT22;9607;51.600;7.558;2023-11-19T03:20:06;12.40;99.90
18948;DHT22;9607;51.600;7.558;2023-11-19T03:22:35;12.40;99.90
18948;DHT22;9607;51.600;7.558;2023-11-19T03:25:03;12.50;99.90
18948;DHT22;9607;51.600;7.558;2023-11-19T03:27:35;12.50;99.90
18948;DHT22;9607;51.600;7.558;2023-11-19T03:30:07;12.50;99.90
18948;DHT22;9607;51.600;7.558;2023-11-19T03:32:35;12.50;99.90
18948;DHT22;9607;51.600;7.558;2023-11-19T03:35:02;12.50;99.90
18948;DHT22;9607;51.600;7.558;2023-11-19T03:37:31;12.60;99.90
18948;DHT22;9607;51.600;7.558;2023-11-19T03:39:59;12.50;99.90
18948;DHT22;9607;51.600;7.558;2023-11-19T03:42:27;12.60;99.90
18948;DHT22;9607;51.600;7.558;2023-11-19T03:44:56;12.60;99.90
18948;DHT22;9607;51.600;7.558;2023-11-19T03:47:23;12.70;99.90
18948;DHT22;9607;51.600;7.558;2023-11-19T03:49:51;12.70;99.90
18948;DHT22;9607;51.600;7.558;2023-11-19T03:52:18;12.70;99.90
18948;DHT22;9607;51.600;7.558;2023-11-19T03:54:47;12.70;99.90
18948;DHT22;9607;51.600;7.558;2023-11-19T03:57:14;12.70;99.90
18948;DHT22;9607;51.600;7.558;2023-11-19T03:59:42;12.80;99.90
18948;DHT22;9607;51.600;7.558;2023-11-19T04:02:10;12.80;99.90
18948;DHT22;9607;51.600;7.558;2023-11-19T04:04:40;12.70;99.90
18948;DHT22;9607;51.600;7.558;2023-11-19T04:07:08;12.70;99.90
18948;DHT22;9607;51.600;7.558;2023-11-19T04:09:34;12.80;99.90
18948;DHT22;9607;51.600;7.558;2023-11-19T04:12:05;12.70;99.90
18948;DHT22;9607;51.600;7.558;2023-11-19T04:14:32;12.70;99.90
18948;DHT22;9607;51.600;7.558;2023-11-19T04:16:59;12.70;99.90
18948;DHT22;9607;51.600;7.558;2023-11-19T04:19:25;12.70;99.90
18948;DHT22;9607;51.600;7.558;2023-11-19T04:21:52;12.80;99.90
18948;DHT22;9607;51.600;7.558;2023-11-19T04:24:19;12.80;99.90
18948;DHT22;9607;51.600;7.558;2023-11-19T04:26:46;12.70;99.90
18948;DHT22;9607;51.600;7.558;2023-11-19T04:29:16;12.70;99.90
18948;DHT22;9607;51.600;7.558;2023-11-19T04:31:43;12.70;99.90
18948;DHT22;9607;51.600;7.558;2023-11-19T04:34:11;12.70;99.90
18948;DHT22;9607;51.600;7.558;2023-11-19T04:36:38;12.60;99.90
18948;DHT22;9607;51.600;7.558;2023-11-19T04:39:05;12.60;99.90
18948;DHT22;9607;51.600;7.558;2023-11-19T04:41:35;12.60;99.90
18948;DHT22;9607;51.600;7.558;2023-11-19T04:44:02;12.50;99.90
18948;DHT22;9607;51.600;7.558;2023-11-19T04:46:30;12.50;99.90
18948;DHT22;9607;51.600;7.558;2023-11-19T04:48:57;12.50;99.90
18948;DHT22;9607;51.600;7.558;2023-11-19T04:51:24;12.50;99.90
18948;DHT22;9607;51.600;7.558;2023-11-19T04:53:51;12.60;99.90
18948;DHT22;9607;51.600;7.558;2023-11-19T04:56:18;12.50;99.90
18948;DHT22;9607;51.600;7.558;2023-11-19T04:58:48;12.50;99.90
18948;DHT22;9607;51.600;7.558;2023-11-19T05:01:14;12.50;99.90
18948;DHT22;9607;51.600;7.558;2023-11-19T05:03:44;12.50;99.90
18948;DHT22;9607;51.600;7.558;2023-11-19T05:06:12;12.40;99.90
18948;DHT22;9607;51.600;7.558;2023-11-19T05:08:38;12.30;99.90
18948;DHT22;9607;51.600;7.558;2023-11-19T05:11:05;12.30;99.90
18948;DHT22;9607;51.600;7.558;2023-11-19T05:13:33;12.20;99.90
18948;DHT22;9607;51.600;7.558;2023-11-19T05:16:00;12.20;99.90
18948;DHT22;9607;51.600;7.558;2023-11-19T05:18:28;12.20;99.90
18948;DHT22;9607;51.600;7.558;2023-11-19T05:20:56;12.10;99.90
18948;DHT22;9607;51.600;7.558;2023-11-19T05:23:23;12.10;99.90
18948;DHT22;9607;51.600;7.558;2023-11-19T05:25:50;12.10;99.90
18948;DHT22;9607;51.600;7.558;2023-11-19T05:28:17;12.10;99.90
18948;DHT22;9607;51.600;7.558;2023-11-19T05:30:44;12.10;99.90
18948;DHT22;9607;51.600;7.558;2023-11-19T05:33:10;12.10;99.90
18948;DHT22;9607;51.600;7.558;2023-11-19T05:35:37;12.00;99.90
18948;DHT22;9607;51.600;7.558;2023-11-19T05:38:05;12.00;99.90
18948;DHT22;9607;51.600;7.558;2023-11-19T05:40:32;12.00;99.90
18948;DHT22;9607;51.600;7.558;2023-11-19T05:42:59;12.00;99.90
18948;DHT22;9607;51.600;7.558;2023-11-19T05:45:26;12.00;99.90
18948;DHT22;9607;51.600;7.558;2023-11-19T05:47:53;12.00;99.90
18948;DHT22;9607;51.600;7.558;2023-11-19T05:50:20;12.10;99.90
18948;DHT22;9607;51.600;7.558;2023-11-19T05:52:47;12.00;99.90
18948;DHT22;9607;51.600;7.558;2023-11-19T05:55:15;12.10;99.90
18948;DHT22;9607;51.600;7.558;2023-11-19T05:57:42;12.10;99.90
18948;DHT22;9607;51.600;7.558;2023-11-19T06:00:09;12.10;99.90
18948;DHT22;9607;51.600;7.558;2023-11-19T06:02:38;12.10;99.90
18948;DHT22;9607;51.600;7.558;2023-11-19T06:05:06;12.20;99.90
18948;DHT22;9607;51.600;7.558;2023-11-19T06:07:33;12.20;99.90
18948;DHT22;9607;51.600;7.558;2023-11-19T06:10:01;12.20;99.90
18948;DHT22;9607;51.600;7.558;2023-11-19T06:12:29;12.20;99.90
18948;DHT22;9607;51.600;7.558;2023-11-19T06:14:57;12.20;99.90
18948;DHT22;9607;51.600;7.558;2023-11-19T06:17:24;12.20;99.90
18948;DHT22;9607;51.600;7.558;2023-11-19T06:19:51;12.20;99.90
18948;DHT22;9607;51.600;7.558;2023-11-19T06:22:18;12.10;99.90
18948;DHT22;9607;51.600;7.558;2023-11-19T06:24:45;12.20;99.90
18948;DHT22;9607;51.600;7.558;2023-11-19T06:27:12;12.20;99.90
18948;DHT22;9607;51.600;7.558;2023-11-19T06:29:41;12.10;99.90
18948;DHT22;9607;51.600;7.558;2023-11-19T06:32:10;12.00;99.90
18948;DHT22;9607;51.600;7.558;2023-11-19T06:34:37;12.00;99.90
18948;DHT22;9607;51.600;7.558;2023-11-19T06:37:10;12.00;99.90
18948;DHT22;9607;51.600;7.558;2023-11-19T06:39:36;12.00;99.90
18948;DHT22;9607;51.600;7.558;2023-11-19T06:42:03;12.00;99.90
18948;DHT22;9607;51.600;7.558;2023-11-19T06:44:45;11.90;99.90
18948;DHT22;9607;51.600;7.558;2023-11-19T06:47:12;11.90;99.90
18948;DHT22;9607;51.600;7.558;2023-11-19T06:49:39;11.90;99.90
18948;DHT22;9607;51.600;7.558;2023-11-19T06:52:06;11.90;99.90
18948;DHT22;9607;51.600;7.558;2023-11-19T06:54:33;11.90;99.90
18948;DHT22;9607;51.600;7.558;2023-11-19T06:57:00;12.00;99.90
18948;DHT22;9607;51.600;7.558;2023-11-19T06:59:26;11.90;99.90
18948;DHT22;9607;51.600;7.558;2023-11-19T07:01:56;12.00;99.90
18948;DHT22;9607;51.600;7.558;2023-11-19T07:04:23;12.00;99.90
18948;DHT22;9607;51.600;7.558;2023-11-19T07:06:50;12.00;99.90
18948;DHT22;9607;51.600;7.558;2023-11-19T07:09:17;12.00;99.90
18948;DHT22;9607;51.600;7.558;2023-11-19T07:11:44;12.10;99.90
18948;DHT22;9607;51.600;7.558;2023-11-19T07:14:12;12.10;99.90
18948;DHT22;9607;51.600;7.558;2023-11-19T07:16:38;12.20;99.90
18948;DHT22;9607;51.600;7.558;2023-11-19T07:19:07;12.20;99.90
18948;DHT22;9607;51.600;7.558;2023-11-19T07:21:34;12.20;99.90
18948;DHT22;9607;51.600;7.558;2023-11-19T07:24:05;12.20;99.90
18948;DHT22;9607;51.600;7.558;2023-11-19T07:26:33;12.20;99.90
18948;DHT22;9607;51.600;7.558;2023-11-19T07:28:59;12.30;99.90
18948;DHT22;9607;51.600;7.558;2023-11-19T07:31:27;12.30;99.90
18948;DHT22;9607;51.600;7.558;2023-11-19T07:33:54;12.30;99.90
18948;DHT22;9607;51.600;7.558;2023-11-19T07:36:23;12.30;99.90
18948;DHT22;9607;51.600;7.558;2023-11-19T07:38:49;12.30;99.90
18948;DHT22;9607;51.600;7.558;2023-11-19T07:41:16;12.30;99.90
18948;DHT22;9607;51.600;7.558;2023-11-19T07:43:43;12.40;99.90
18948;DHT22;9607;51.600;7.558;2023-11-19T07:46:12;12.30;99.90
18948;DHT22;9607;51.600;7.558;2023-11-19T07:48:39;12.30;99.90
18948;DHT22;9607;51.600;7.558;2023-11-19T07:51:06;12.30;99.90
18948;DHT22;9607;51.600;7.558;2023-11-19T07:53:34;12.30;99.90
18948;DHT22;9607;51.600;7.558;2023-11-19T07:56:03;12.30;99.90
18948;DHT22;9607;51.600;7.558;2023-11-19T07:58:31;12.30;99.90
18948;DHT22;9607;51.600;7.558;2023-11-19T08:00:58;12.30;99.90
18948;DHT22;9607;51.600;7.558;2023-11-19T08:03:25;12.30;99.90
18948;DHT22;9607;51.600;7.558;2023-11-19T08:05:55;12.30;99.90
18948;DHT22;9607;51.600;7.558;2023-11-19T08:08:22;12.30;99.90
18948;DHT22;9607;51.600;7.558;2023-11-19T08:10:50;12.30;99.90
18948;DHT22;9607;51.600;7.558;2023-11-19T08:13:18;12.30;99.90
18948;DHT22;9607;51.600;7.558;2023-11-19T08:15:45;12.30;99.90
18948;DHT22;9607;51.600;7.558;2023-11-19T08:18:13;12.20;99.90
18948;DHT22;9607;51.600;7.558;2023-11-19T08:20:40;12.30;99.90
18948;DHT22;9607;51.600;7.558;2023-11-19T08:23:09;12.30;99.90
18948;DHT22;9607;51.600;7.558;2023-11-19T08:25:36;12.30;99.90
18948;DHT22;9607;51.600;7.558;2023-11-19T08:28:05;12.30;99.90
18948;DHT22;9607;51.600;7.558;2023-11-19T08:30:32;12.30;99.90
18948;DHT22;9607;51.600;7.558;2023-11-19T08:32:59;12.40;99.90
18948;DHT22;9607;51.600;7.558;2023-11-19T08:35:28;12.40;99.90
18948;DHT22;9607;51.600;7.558;2023-11-19T08:37:55;12.50;99.90
18948;DHT22;9607;51.600;7.558;2023-11-19T08:40:22;12.50;99.90
18948;DHT22;9607;51.600;7.558;2023-11-19T08:42:49;12.60;99.90
18948;DHT22;9607;51.600;7.558;2023-11-19T08:45:18;12.60;99.90
18948;DHT22;9607;51.600;7.558;2023-11-19T08:47:45;12.60;99.90
18948;DHT22;9607;51.600;7.558;2023-11-19T08:50:14;12.70;99.90
18948;DHT22;9607;51.600;7.558;2023-11-19T08:52:40;12.80;99.90
18948;DHT22;9607;51.600;7.558;2023-11-19T08:55:07;12.80;99.90
18948;DHT22;9607;51.600;7.558;2023-11-19T08:57:35;12.90;99.90
18948;DHT22;9607;51.600;7.558;2023-11-19T09:00:03;12.90;99.90
18948;DHT22;9607;51.600;7.558;2023-11-19T09:02:34;12.90;99.90
18948;DHT22;9607;51.600;7.558;2023-11-19T09:05:02;13.00;99.90
18948;DHT22;9607;51.600;7.558;2023-11-19T09:07:29;13.00;99.90
18948;DHT22;9607;51.600;7.558;2023-11-19T09:09:56;13.00;99.90
18948;DHT22;9607;51.600;7.558;2023-11-19T09:12:23;13.00;99.90
18948;DHT22;9607;51.600;7.558;2023-11-19T09:14:50;13.00;99.90
18948;DHT22;9607;51.600;7.558;2023-11-19T09:17:17;13.00;99.90
18948;DHT22;9607;51.600;7.558;2023-11-19T09:19:45;12.90;99.90
18948;DHT22;9607;51.600;7.558;2023-11-19T09:22:12;12.90;99.90
18948;DHT22;9607;51.600;7.558;2023-11-19T09:24:40;12.90;99.90
18948;DHT22;9607;51.600;7.558;2023-11-19T09:27:07;12.90;99.90
18948;DHT22;9607;51.600;7.558;2023-11-19T09:29:34;12.90;99.90
18948;DHT22;9607;51.600;7.558;2023-11-19T09:32:01;13.00;99.90
18948;DHT22;9607;51.600;7.558;2023-11-19T09:34:47;13.00;99.90
18948;DHT22;9607;51.600;7.558;2023-11-19T09:37:15;13.00;99.90
18948;DHT22;9607;51.600;7.558;2023-11-19T09:39:49;13.10;99.90
18948;DHT22;9607;51.600;7.558;2023-11-19T09:42:16;13.10;99.90
18948;DHT22;9607;51.600;7.558;2023-11-19T09:44:43;13.30;99.90
18948;DHT22;9607;51.600;7.558;2023-11-19T09:47:11;13.30;99.90
18948;DHT22;9607;51.600;7.558;2023-11-19T09:49:41;13.30;99.90
18948;DHT22;9607;51.600;7.558;2023-11-19T09:52:09;13.40;99.90
18948;DHT22;9607;51.600;7.558;2023-11-19T09:54:38;13.40;99.90
18948;DHT22;9607;51.600;7.558;2023-11-19T09:57:07;13.50;99.90
18948;DHT22;9607;51.600;7.558;2023-11-19T09:59:37;13.50;99.90
18948;DHT22;9607;51.600;7.558;2023-11-19T10:02:06;13.60;99.90
18948;DHT22;9607;51.600;7.558;2023-11-19T10:04:35;13.50;99.90
18948;DHT22;9607;51.600;7.558;2023-11-19T10:07:10;13.50;99.90
18948;DHT22;9607;51.600;7.558;2023-11-19T10:09:38;13.40;99.90
18948;DHT22;9607;51.600;7.558;2023-11-19T10:12:05;13.40;99.90
18948;DHT22;9607;51.600;7.558;2023-11-19T10:14:38;13.30;99.90
18948;DHT22;9607;51.600;7.558;2023-11-19T10:17:13;13.30;99.90
18948;DHT22;9607;51.600;7.558;2023-11-19T10:19:40;13.20;99.90
18948;DHT22;9607;51.600;7.558;2023-11-19T10:22:17;13.20;99.90
18948;DHT22;9607;51.600;7.558;2023-11-19T10:24:45;13.10;99.90
18948;DHT22;9607;51.600;7.558;2023-11-19T10:27:14;13.20;99.90
18948;DHT22;9607;51.600;7.558;2023-11-19T10:29:44;13.20;99.90
18948;DHT22;9607;51.600;7.558;2023-11-19T10:35:20;13.20;99.90
18948;DHT22;9607;51.600;7.558;2023-11-19T10:37:49;13.10;99.90
18948;DHT22;9607;51.600;7.558;2023-11-19T10:40:16;13.10;99.90
18948;DHT22;9607;51.600;7.558;2023-11-19T10:42:44;13.00;99.90
18948;DHT22;9607;51.600;7.558;2023-11-19T10:45:22;13.00;99.90
18948;DHT22;9607;51.600;7.558;2023-11-19T10:47:51;12.90;99.90
18948;DHT22;9607;51.600;7.558;2023-11-19T10:50:20;12.90;99.90
18948;DHT22;9607;51.600;7.558;2023-11-19T10:52:52;12.90;99.90
18948;DHT22;9607;51.600;7.558;2023-11-19T10:55:30;12.90;99.90
18948;DHT22;9607;51.600;7.558;2023-11-19T10:58:00;13.00;99.90
18948;DHT22;9607;51.600;7.558;2023-11-19T11:00:30;13.10;99.90
18948;DHT22;9607;51.600;7.558;2023-11-19T11:03:11;13.20;99.90
18948;DHT22;9607;51.600;7.558;2023-11-19T11:05:39;13.30;99.90
18948;DHT22;9607;51.600;7.558;2023-11-19T11:08:24;13.30;99.90
18948;DHT22;9607;51.600;7.558;2023-11-19T11:10:54;13.40;99.90
18948;DHT22;9607;51.600;7.558;2023-11-19T11:13:23;13.30;99.90
18948;DHT22;9607;51.600;7.558;2023-11-19T11:15:50;13.30;99.90
18948;DHT22;9607;51.600;7.558;2023-11-19T11:18:17;13.30;99.90
18948;DHT22;9607;51.600;7.558;2023-11-19T11:20:54;13.20;99.90
18948;DHT22;9607;51.600;7.558;2023-11-19T11:23:37;13.10;99.90
18948;DHT22;9607;51.600;7.558;2023-11-19T11:26:30;12.90;99.90
18948;DHT22;9607;51.600;7.558;2023-11-19T11:29:19;12.80;99.90
18948;DHT22;9607;51.600;7.558;2023-11-19T11:31:55;12.70;99.90
18948;DHT22;9607;51.600;7.558;2023-11-19T11:34:51;12.80;99.90
18948;DHT22;9607;51.600;7.558;2023-11-19T11:37:33;12.70;99.90
18948;DHT22;9607;51.600;7.558;2023-11-19T11:40:14;12.80;99.90
18948;DHT22;9607;51.600;7.558;2023-11-19T11:42:41;12.70;99.90
18948;DHT22;9607;51.600;7.558;2023-11-19T11:45:35;12.80;99.90
18948;DHT22;9607;51.600;7.558;2023-11-19T11:48:34;12.70;99.90
18948;DHT22;9607;51.600;7.558;2023-11-19T11:51:01;12.70;99.90
18948;DHT22;9607;51.600;7.558;2023-11-19T11:53:47;12.60;99.90
18948;DHT22;9607;51.600;7.558;2023-11-19T12:02:25;12.50;99.90
18948;DHT22;9607;51.600;7.558;2023-11-19T12:05:08;12.50;99.90
18948;DHT22;9607;51.600;7.558;2023-11-19T12:07:38;12.50;99.90
18948;DHT22;9607;51.600;7.558;2023-11-19T12:10:07;12.50;99.90
18948;DHT22;9607;51.600;7.558;2023-11-19T12:12:35;12.60;99.90
18948;DHT22;9607;51.600;7.558;2023-11-19T12:15:06;12.70;99.90
18948;DHT22;9607;51.600;7.558;2023-11-19T12:17:43;12.80;99.90
18948;DHT22;9607;51.600;7.558;2023-11-19T12:20:26;12.90;99.90
18948;DHT22;9607;51.600;7.558;2023-11-19T12:23:33;13.10;99.90
18948;DHT22;9607;51.600;7.558;2023-11-19T12:26:04;13.10;99.90
18948;DHT22;9607;51.600;7.558;2023-11-19T12:28:33;13.30;99.90
18948;DHT22;9607;51.600;7.558;2023-11-19T12:31:14;13.50;99.90
18948;DHT22;9607;51.600;7.558;2023-11-19T12:36:25;14.00;99.90
18948;DHT22;9607;51.600;7.558;2023-11-19T12:39:06;13.90;99.90
18948;DHT22;9607;51.600;7.558;2023-11-19T12:41:50;13.90;99.90
18948;DHT22;9607;51.600;7.558;2023-11-19T12:44:21;13.80;99.90
18948;DHT22;9607;51.600;7.558;2023-11-19T12:47:09;13.80;99.90
18948;DHT22;9607;51.600;7.558;2023-11-19T12:49:36;13.80;99.90
18948;DHT22;9607;51.600;7.558;2023-11-19T12:52:13;13.90;99.90
18948;DHT22;9607;51.600;7.558;2023-11-19T12:54:39;13.80;99.90
18948;DHT22;9607;51.600;7.558;2023-11-19T12:57:06;13.90;99.90
18948;DHT22;9607;51.600;7.558;2023-11-19T12:59:34;13.90;99.90
18948;DHT22;9607;51.600;7.558;2023-11-19T13:02:00;13.90;99.90
18948;DHT22;9607;51.600;7.558;2023-11-19T13:04:31;13.90;99.90
18948;DHT22;9607;51.600;7.558;2023-11-19T13:06:59;14.00;99.90
18948;DHT22;9607;51.600;7.558;2023-11-19T13:09:27;14.00;99.90
18948;DHT22;9607;51.600;7.558;2023-11-19T13:11:55;14.00;99.90
18948;DHT22;9607;51.600;7.558;2023-11-19T13:14:23;14.00;99.90
18948;DHT22;9607;51.600;7.558;2023-11-19T13:16:58;13.90;99.90
18948;DHT22;9607;51.600;7.558;2023-11-19T13:19:25;13.70;99.90
18948;DHT22;9607;51.600;7.558;2023-11-19T13:25:08;13.00;99.90
18948;DHT22;9607;51.600;7.558;2023-11-19T13:27:35;12.50;99.90
18948;DHT22;9607;51.600;7.558;2023-11-19T13:30:09;12.20;99.90
18948;DHT22;9607;51.600;7.558;2023-11-19T13:32:36;12.00;99.90
18948;DHT22;9607;51.600;7.558;2023-11-19T13:35:05;11.90;99.90
18948;DHT22;9607;51.600;7.558;2023-11-19T13:37:36;11.80;99.90
18948;DHT22;9607;51.600;7.558;2023-11-19T13:40:05;11.90;99.90
18948;DHT22;9607;51.600;7.558;2023-11-19T13:42:49;11.90;99.90
18948;DHT22;9607;51.600;7.558;2023-11-19T13:45:16;11.90;99.90
18948;DHT22;9607;51.600;7.558;2023-11-19T13:47:45;11.90;99.90
18948;DHT22;9607;51.600;7.558;2023-11-19T13:50:14;11.90;99.90
18948;DHT22;9607;51.600;7.558;2023-11-19T13:52:44;11.90;99.90
18948;DHT22;9607;51.600;7.558;2023-11-19T13:55:13;12.00;99.90
18948;DHT22;9607;51.600;7.558;2023-11-19T13:57:41;12.10;99.90
18948;DHT22;9607;51.600;7.558;2023-11-19T14:00:12;12.10;99.90
18948;DHT22;9607;51.600;7.558;2023-11-19T14:02:39;12.10;99.90
18948;DHT22;9607;51.600;7.558;2023-11-19T14:05:08;12.10;99.90
18948;DHT22;9607;51.600;7.558;2023-11-19T14:07:36;12.20;99.90
18948;DHT22;9607;51.600;7.558;2023-11-19T14:10:03;12.20;99.90
18948;DHT22;9607;51.600;7.558;2023-11-19T14:12:33;12.20;99.90
18948;DHT22;9607;51.600;7.558;2023-11-19T14:15:00;12.20;99.90
18948;DHT22;9607;51.600;7.558;2023-11-19T14:17:33;12.20;99.90
18948;DHT22;9607;51.600;7.558;2023-11-19T14:20:00;12.30;99.90
18948;DHT22;9607;51.600;7.558;2023-11-19T14:22:27;12.30;99.90
18948;DHT22;9607;51.600;7.558;2023-11-19T14:24:54;12.30;99.90
18948;DHT22;9607;51.600;7.558;2023-11-19T14:27:23;12.50;99.90
18948;DHT22;9607;51.600;7.558;2023-11-19T14:29:56;12.50;99.90
18948;DHT22;9607;51.600;7.558;2023-11-19T14:32:28;12.60;99.90
18948;DHT22;9607;51.600;7.558;2023-11-19T14:34:58;12.60;99.90
18948;DHT22;9607;51.600;7.558;2023-11-19T14:37:25;12.60;99.90
18948;DHT22;9607;51.600;7.558;2023-11-19T14:39:52;12.60;99.90
18948;DHT22;9607;51.600;7.558;2023-11-19T14:42:19;12.50;99.90
18948;DHT22;9607;51.600;7.558;2023-11-19T14:44:46;12.50;99.90
18948;DHT22;9607;51.600;7.558;2023-11-19T14:47:13;12.50;99.90
18948;DHT22;9607;51.600;7.558;2023-11-19T14:49:43;12.50;99.90
18948;DHT22;9607;51.600;7.558;2023-11-19T14:52:11;12.50;99.90
18948;DHT22;9607;51.600;7.558;2023-11-19T14:54:45;12.40;99.90
18948;DHT22;9607;51.600;7.558;2023-11-19T14:57:12;12.40;99.90
18948;DHT22;9607;51.600;7.558;2023-11-19T14:59:45;12.30;99.90
18948;DHT22;9607;51.600;7.558;2023-11-19T15:02:13;12.20;99.90
18948;DHT22;9607;51.600;7.558;2023-11-19T15:04:39;12.00;99.90
18948;DHT22;9607;51.600;7.558;2023-11-19T15:09:38;11.70;99.90
18948;DHT22;9607;51.600;7.558;2023-11-19T15:12:06;11.60;99.90
18948;DHT22;9607;51.600;7.558;2023-11-19T15:14:41;11.60;99.90
18948;DHT22;9607;51.600;7.558;2023-11-19T15:17:34;11.50;99.90
18948;DHT22;9607;51.600;7.558;2023-11-19T15:20:02;11.40;99.90
18948;DHT22;9607;51.600;7.558;2023-11-19T15:22:30;11.50;99.90
18948;DHT22;9607;51.600;7.558;2023-11-19T15:24:58;11.40;99.90
18948;DHT22;9607;51.600;7.558;2023-11-19T15:27:25;11.40;99.90
18948;DHT22;9607;51.600;7.558;2023-11-19T15:29:54;11.40;99.90
18948;DHT22;9607;51.600;7.558;2023-11-19T15:32:21;11.40;99.90
18948;DHT22;9607;51.600;7.558;2023-11-19T15:34:48;11.30;99.90
18948;DHT22;9607;51.600;7.558;2023-11-19T15:37:19;11.30;99.90
18948;DHT22;9607;51.600;7.558;2023-11-19T15:39:45;11.30;99.90
18948;DHT22;9607;51.600;7.558;2023-11-19T15:42:14;11.30;99.90
18948;DHT22;9607;51.600;7.558;2023-11-19T15:44:42;11.30;99.90
18948;DHT22;9607;51.600;7.558;2023-11-19T15:47:10;11.30;99.90
18948;DHT22;9607;51.600;7.558;2023-11-19T15:49:40;11.40;99.90
18948;DHT22;9607;51.600;7.558;2023-11-19T15:52:07;11.40;99.90
18948;DHT22;9607;51.600;7.558;2023-11-19T15:54:34;11.40;99.90
18948;DHT22;9607;51.600;7.558;2023-11-19T15:57:03;11.50;99.90
18948;DHT22;9607;51.600;7.558;2023-11-19T15:59:33;11.50;99.90
18948;DHT22;9607;51.600;7.558;2023-11-19T16:02:00;11.60;99.90
18948;DHT22;9607;51.600;7.558;2023-11-19T16:04:27;11.50;99.90
18948;DHT22;9607;51.600;7.558;2023-11-19T16:06:54;11.50;99.90
18948;DHT22;9607;51.600;7.558;2023-11-19T16:09:21;11.50;99.90
18948;DHT22;9607;51.600;7.558;2023-11-19T16:11:48;11.40;99.90
18948;DHT22;9607;51.600;7.558;2023-11-19T16:14:15;11.30;99.90
18948;DHT22;9607;51.600;7.558;2023-11-19T16:16:43;11.30;99.90
18948;DHT22;9607;51.600;7.558;2023-11-19T16:19:10;11.30;99.90
18948;DHT22;9607;51.600;7.558;2023-11-19T16:21:37;11.30;99.90